createdAt,value
2018-05-01T00:00:18.796Z,54.14
2018-05-01T00:01:18.784Z,53.56
2018-05-01T00:02:18.774Z,54.05
2018-05-01T00:03:18.762Z,53.75
2018-05-01T00:04:18.761Z,53.66
2018-05-01T00:05:18.747Z,53.95
2018-05-01T00:06:18.744Z,53.75
2018-05-01T00:07:18.735Z,53.75
2018-05-01T00:08:18.730Z,53.85
2018-05-01T00:09:18.718Z,53.75
2018-05-01T00:10:18.710Z,53.85
2018-05-01T00:11:18.703Z,53.85
2018-05-01T00:12:18.695Z,53.75
2018-05-01T00:13:18.690Z,53.95
2018-05-01T00:14:18.679Z,53.75
2018-05-01T00:15:18.673Z,53.75
2018-05-01T00:16:18.665Z,54.05
2018-05-01T00:17:18.662Z,53.75
2018-05-01T00:18:18.650Z,54.05
2018-05-01T00:19:18.646Z,54.05
2018-05-01T00:20:18.635Z,54.05
2018-05-01T00:21:18.630Z,53.95
2018-05-01T00:22:18.619Z,54.05
2018-05-01T00:23:18.612Z,54.14
2018-05-01T00:24:18.605Z,53.95
2018-05-01T00:25:18.596Z,54.14
2018-05-01T00:26:18.592Z,54.05
2018-05-01T00:27:18.583Z,54.14
2018-05-01T00:28:18.573Z,54.14
2018-05-01T00:29:18.567Z,53.95
2018-05-01T00:30:18.558Z,54.14
2018-05-01T00:31:18.556Z,54.05
2018-05-01T00:32:18.549Z,53.95
2018-05-01T00:33:18.538Z,53.95
2018-05-01T00:34:18.529Z,53.95
2018-05-01T00:35:18.521Z,54.05
2018-05-01T00:36:18.519Z,54.05
2018-05-01T00:37:18.507Z,53.95
2018-05-01T00:38:18.502Z,53.95
2018-05-01T00:39:18.489Z,53.95
2018-05-01T00:40:18.484Z,54.05
2018-05-01T00:41:18.485Z,54.05
2018-05-01T00:42:18.469Z,53.95
2018-05-01T00:43:18.460Z,53.95
2018-05-01T00:44:18.454Z,53.85
2018-05-01T00:45:18.445Z,53.95
2018-05-01T00:46:18.446Z,54.05
2018-05-01T00:47:18.429Z,54.05
2018-05-01T00:48:18.425Z,54.05
2018-05-01T00:49:18.422Z,53.85
2018-05-01T00:50:18.410Z,54.14
2018-05-01T00:51:18.401Z,54.14
2018-05-01T00:52:18.392Z,54.14
2018-05-01T00:53:18.385Z,53.75
2018-05-01T00:54:18.384Z,53.75
2018-05-01T00:55:18.371Z,53.75
2018-05-01T00:56:18.363Z,53.75
2018-05-01T00:57:18.357Z,53.56
2018-05-01T00:58:18.348Z,53.83
2018-05-01T00:59:18.344Z,53.56
2018-05-01T01:00:18.336Z,53.56
2018-05-01T01:01:18.327Z,53.66
2018-05-01T01:02:18.351Z,53.85
2018-05-01T01:03:18.311Z,53.56
2018-05-01T01:04:18.305Z,53.85
2018-05-01T01:05:18.325Z,53.85
2018-05-01T01:06:18.318Z,54.14
2018-05-01T01:07:18.285Z,53.75
2018-05-01T01:08:18.272Z,53.85
2018-05-01T01:09:18.266Z,53.85
2018-05-01T01:10:18.256Z,53.56
2018-05-01T01:11:18.253Z,53.56
2018-05-01T01:12:18.244Z,53.56
2018-05-01T01:13:18.234Z,53.53
2018-05-01T01:14:18.232Z,53.56
2018-05-01T01:15:18.220Z,53.56
2018-05-01T01:16:18.215Z,53.56
2018-05-01T01:17:18.201Z,53.37
2018-05-01T01:18:18.197Z,53.56
2018-05-01T01:19:18.187Z,53.56
2018-05-01T01:20:18.188Z,53.47
2018-05-01T01:21:18.178Z,53.56
2018-05-01T01:22:18.168Z,53.56
2018-05-01T01:23:18.160Z,53.66
2018-05-01T01:24:18.152Z,53.47
2018-05-01T01:25:18.147Z,53.56
2018-05-01T01:26:18.143Z,53.56
2018-05-01T01:27:18.128Z,53.56
2018-05-01T01:28:18.125Z,53.56
2018-05-01T01:29:18.115Z,53.37
2018-05-01T01:30:18.107Z,53.37
2018-05-01T01:31:18.102Z,53.56
2018-05-01T01:32:18.094Z,53.66
2018-05-01T01:33:18.097Z,53.66
2018-05-01T01:34:18.078Z,53.53
2018-05-01T01:35:18.069Z,53.56
2018-05-01T01:36:18.116Z,53.56
2018-05-01T01:37:18.054Z,53.56
2018-05-01T01:38:18.045Z,53.66
2018-05-01T01:39:18.041Z,53.56
2018-05-01T01:40:18.032Z,53.63
2018-05-01T01:41:18.022Z,53.56
2018-05-01T01:42:18.018Z,53.73
2018-05-01T01:43:18.011Z,53.47
2018-05-01T01:44:17.997Z,53.56
2018-05-01T01:45:17.998Z,53.66
2018-05-01T01:46:17.984Z,53.47
2018-05-01T01:47:17.977Z,53.56
2018-05-01T01:48:17.970Z,53.56
2018-05-01T01:49:17.963Z,53.56
2018-05-01T01:50:17.959Z,53.56
2018-05-01T01:51:17.946Z,53.47
2018-05-01T01:52:17.945Z,53.47
2018-05-01T01:53:17.933Z,53.44
2018-05-01T01:54:17.932Z,53.75
2018-05-01T01:55:17.917Z,53.53
2018-05-01T01:56:17.911Z,53.66
2018-05-01T01:57:17.901Z,53.56
2018-05-01T01:58:17.898Z,53.53
2018-05-01T01:59:17.887Z,53.47
2018-05-01T02:00:17.884Z,53.56
2018-05-01T02:01:17.871Z,53.47
2018-05-01T02:02:17.861Z,53.47
2018-05-01T02:03:17.856Z,53.56
2018-05-01T02:04:17.847Z,53.75
2018-05-01T02:05:17.841Z,53.44
2018-05-01T02:06:17.832Z,53.56
2018-05-01T02:07:17.823Z,53.66
2018-05-01T02:08:17.816Z,53.75
2018-05-01T02:09:17.809Z,53.85
2018-05-01T02:10:17.882Z,53.75
2018-05-01T02:11:17.800Z,53.66
2018-05-01T02:12:17.792Z,53.85
2018-05-01T02:13:17.779Z,53.85
2018-05-01T02:14:17.772Z,53.85
2018-05-01T02:15:17.764Z,53.83
2018-05-01T02:16:17.756Z,53.27
2018-05-01T02:17:17.749Z,53.25
2018-05-01T02:18:17.740Z,53.27
2018-05-01T02:19:17.735Z,53.37
2018-05-01T02:20:17.726Z,53.27
2018-05-01T02:21:17.720Z,53.37
2018-05-01T02:22:17.709Z,53.37
2018-05-01T02:23:17.710Z,53.27
2018-05-01T02:24:17.709Z,53.37
2018-05-01T02:25:17.687Z,53.37
2018-05-01T02:26:17.682Z,53.34
2018-05-01T02:27:17.675Z,53.37
2018-05-01T02:28:17.666Z,53.34
2018-05-01T02:29:17.659Z,53.37
2018-05-01T02:30:17.662Z,53.37
2018-05-01T02:31:17.655Z,53.15
2018-05-01T02:32:17.635Z,53.08
2018-05-01T02:33:17.627Z,53.25
2018-05-01T02:34:17.624Z,53.27
2018-05-01T02:35:17.614Z,53.27
2018-05-01T02:36:17.602Z,53.27
2018-05-01T02:37:17.601Z,53.25
2018-05-01T02:38:17.589Z,53.27
2018-05-01T02:39:17.579Z,53.27
2018-05-01T02:40:17.572Z,53.25
2018-05-01T02:41:17.644Z,52.86
2018-05-01T02:42:17.558Z,52.95
2018-05-01T02:43:17.549Z,53.27
2018-05-01T02:44:17.545Z,52.95
2018-05-01T02:45:17.537Z,52.86
2018-05-01T02:46:17.528Z,52.95
2018-05-01T02:47:17.522Z,52.79
2018-05-01T02:48:17.519Z,52.89
2018-05-01T02:49:17.509Z,53.15
2018-05-01T02:50:17.501Z,52.95
2018-05-01T02:51:17.491Z,52.95
2018-05-01T02:52:17.481Z,52.89
2018-05-01T02:53:17.475Z,52.98
2018-05-01T02:54:17.466Z,52.89
2018-05-01T02:55:17.466Z,52.89
2018-05-01T02:56:17.450Z,52.86
2018-05-01T02:57:17.444Z,52.95
2018-05-01T02:58:17.435Z,52.86
2018-05-01T02:59:17.432Z,52.86
2018-05-01T03:00:17.419Z,52.89
2018-05-01T03:01:17.414Z,52.86
2018-05-01T03:02:17.404Z,52.86
2018-05-01T03:03:17.396Z,52.86
2018-05-01T03:04:17.387Z,52.95
2018-05-01T03:05:17.382Z,53.15
2018-05-01T03:06:17.385Z,53.25
2018-05-01T03:07:17.363Z,52.86
2018-05-01T03:08:17.358Z,52.86
2018-05-01T03:09:17.351Z,52.86
2018-05-01T03:10:17.343Z,52.76
2018-05-01T03:11:17.335Z,52.95
2018-05-01T03:12:17.328Z,52.95
2018-05-01T03:13:17.320Z,52.67
2018-05-01T03:14:17.311Z,52.95
2018-05-01T03:15:17.305Z,52.95
2018-05-01T03:16:17.299Z,52.95
2018-05-01T03:17:17.287Z,52.95
2018-05-01T03:18:17.282Z,52.86
2018-05-01T03:19:17.272Z,52.86
2018-05-01T03:20:17.264Z,52.86
2018-05-01T03:21:17.259Z,52.86
2018-05-01T03:22:17.252Z,52.79
2018-05-01T03:23:17.245Z,53.25
2018-05-01T03:24:17.235Z,53.05
2018-05-01T03:25:17.236Z,53.05
2018-05-01T03:26:17.219Z,53.25
2018-05-01T03:27:17.211Z,53.05
2018-05-01T03:28:17.204Z,53.05
2018-05-01T03:29:17.196Z,53.05
2018-05-01T03:30:17.189Z,53.05
2018-05-01T03:31:17.186Z,53.15
2018-05-01T03:32:17.186Z,53.15
2018-05-01T03:33:17.165Z,53.15
2018-05-01T03:34:17.154Z,52.95
2018-05-01T03:35:17.147Z,52.95
2018-05-01T03:36:17.140Z,52.95
2018-05-01T03:37:17.141Z,52.76
2018-05-01T03:38:17.127Z,52.95
2018-05-01T03:39:17.141Z,52.95
2018-05-01T03:40:17.109Z,53.15
2018-05-01T03:41:17.105Z,52.95
2018-05-01T03:42:17.099Z,52.95
2018-05-01T03:43:17.092Z,53.05
2018-05-01T03:44:17.082Z,53.15
2018-05-01T03:45:17.074Z,53.05
2018-05-01T03:46:17.059Z,52.67
2018-05-01T03:47:17.058Z,53.05
2018-05-01T03:48:17.049Z,53.15
2018-05-01T03:49:17.044Z,53.05
2018-05-01T03:50:17.042Z,53.05
2018-05-01T03:51:17.028Z,53.05
2018-05-01T03:52:17.018Z,53.05
2018-05-01T03:53:17.011Z,53.05
2018-05-01T03:54:17.006Z,53.05
2018-05-01T03:55:17.000Z,53.15
2018-05-01T03:56:16.986Z,53.05
2018-05-01T03:57:16.983Z,53.05
2018-05-01T03:58:16.973Z,53.25
2018-05-01T03:59:16.964Z,53.25
2018-05-01T04:00:16.955Z,53.25
2018-05-01T04:01:16.964Z,53.25
2018-05-01T04:02:17.035Z,53.15
2018-05-01T04:03:16.949Z,53.05
2018-05-01T04:04:16.930Z,53.34
2018-05-01T04:05:16.918Z,53.25
2018-05-01T04:06:16.910Z,53.15
2018-05-01T04:07:16.902Z,52.86
2018-05-01T04:08:16.897Z,52.67
2018-05-01T04:09:16.884Z,52.76
2018-05-01T04:10:16.883Z,52.67
2018-05-01T04:11:16.871Z,52.67
2018-05-01T04:12:16.863Z,52.37
2018-05-01T04:13:16.855Z,52.57
2018-05-01T04:14:16.859Z,52.69
2018-05-01T04:15:16.843Z,52.67
2018-05-01T04:16:16.832Z,52.67
2018-05-01T04:17:16.824Z,52.67
2018-05-01T04:18:16.829Z,52.57
2018-05-01T04:19:16.814Z,52.57
2018-05-01T04:20:16.803Z,52.76
2018-05-01T04:21:16.801Z,52.57
2018-05-01T04:22:16.792Z,52.69
2018-05-01T04:23:16.777Z,52.95
2018-05-01T04:24:16.772Z,52.59
2018-05-01T04:25:16.817Z,52.40
2018-05-01T04:26:16.757Z,52.69
2018-05-01T04:27:16.757Z,52.79
2018-05-01T04:28:16.741Z,52.79
2018-05-01T04:29:16.730Z,52.79
2018-05-01T04:30:16.726Z,52.67
2018-05-01T04:31:16.716Z,52.50
2018-05-01T04:32:16.708Z,52.50
2018-05-01T04:33:16.700Z,52.57
2018-05-01T04:34:16.696Z,52.59
2018-05-01T04:35:16.692Z,52.79
2018-05-01T04:36:16.677Z,52.69
2018-05-01T04:37:16.674Z,52.67
2018-05-01T04:38:16.663Z,52.50
2018-05-01T04:39:16.656Z,52.57
2018-05-01T04:40:16.649Z,52.50
2018-05-01T04:41:16.639Z,52.47
2018-05-01T04:42:16.634Z,52.47
2018-05-01T04:43:16.624Z,52.11
2018-05-01T04:44:16.616Z,52.01
2018-05-01T04:45:16.612Z,52.11
2018-05-01T04:46:16.602Z,52.40
2018-05-01T04:47:16.594Z,52.40
2018-05-01T04:48:16.592Z,52.21
2018-05-01T04:49:16.581Z,52.21
2018-05-01T04:50:16.572Z,52.21
2018-05-01T04:51:16.564Z,52.28
2018-05-01T04:52:16.561Z,52.19
2018-05-01T04:53:16.551Z,52.31
2018-05-01T04:54:16.540Z,52.50
2018-05-01T04:55:16.532Z,52.50
2018-05-01T04:56:16.523Z,52.31
2018-05-01T04:57:16.515Z,52.31
2018-05-01T04:58:16.515Z,52.21
2018-05-01T04:59:16.502Z,52.21
2018-05-01T05:00:16.494Z,52.11
2018-05-01T05:01:16.490Z,52.31
2018-05-01T05:02:16.479Z,52.37
2018-05-01T05:03:16.472Z,52.50
2018-05-01T05:04:16.465Z,52.40
2018-05-01T05:05:16.456Z,52.31
2018-05-01T05:06:16.456Z,52.31
2018-05-01T05:07:16.440Z,52.21
2018-05-01T05:08:16.432Z,52.28
2018-05-01T05:09:16.425Z,52.69
2018-05-01T05:10:16.422Z,52.28
2018-05-01T05:11:16.410Z,52.19
2018-05-01T05:12:16.406Z,52.09
2018-05-01T05:13:16.398Z,52.28
2018-05-01T05:14:16.386Z,52.28
2018-05-01T05:15:16.378Z,52.31
2018-05-01T05:16:16.367Z,52.37
2018-05-01T05:17:16.372Z,52.37
2018-05-01T05:18:16.365Z,52.28
2018-05-01T05:19:16.347Z,52.37
2018-05-01T05:20:16.340Z,52.28
2018-05-01T05:21:16.332Z,52.47
2018-05-01T05:22:16.326Z,52.47
2018-05-01T05:23:16.315Z,52.47
2018-05-01T05:24:16.315Z,52.37
2018-05-01T05:25:16.302Z,52.37
2018-05-01T05:26:16.293Z,52.09
2018-05-01T05:27:16.285Z,52.28
2018-05-01T05:28:16.273Z,52.19
2018-05-01T05:29:16.270Z,52.28
2018-05-01T05:30:16.272Z,51.99
2018-05-01T05:31:16.311Z,52.28
2018-05-01T05:32:16.252Z,51.99
2018-05-01T05:33:16.240Z,52.19
2018-05-01T05:34:16.232Z,52.19
2018-05-01T05:35:16.224Z,52.47
2018-05-01T05:36:16.279Z,52.28
2018-05-01T05:37:16.212Z,52.47
2018-05-01T05:38:16.212Z,52.37
2018-05-01T05:39:16.194Z,52.09
2018-05-01T05:40:16.185Z,52.19
2018-05-01T05:41:16.176Z,52.09
2018-05-01T05:42:16.169Z,52.09
2018-05-01T05:43:16.161Z,51.99
2018-05-01T05:44:16.155Z,52.31
2018-05-01T05:45:16.147Z,52.31
2018-05-01T05:46:16.144Z,52.21
2018-05-01T05:47:16.137Z,52.21
2018-05-01T05:48:16.121Z,52.31
2018-05-01T05:49:16.114Z,52.40
2018-05-01T05:50:16.108Z,52.31
2018-05-01T05:51:16.103Z,52.31
2018-05-01T05:52:16.090Z,52.21
2018-05-01T05:53:16.089Z,52.11
2018-05-01T05:54:16.143Z,52.11
2018-05-01T05:55:16.069Z,52.11
2018-05-01T05:56:16.062Z,52.11
2018-05-01T05:57:16.056Z,52.21
2018-05-01T05:58:16.046Z,52.21
2018-05-01T05:59:16.038Z,51.73
2018-05-01T06:00:16.034Z,51.82
2018-05-01T06:01:16.020Z,51.63
2018-05-01T06:02:16.015Z,51.53
2018-05-01T06:03:16.010Z,51.73
2018-05-01T06:04:16.053Z,51.73
2018-05-01T06:05:15.994Z,51.44
2018-05-01T06:06:15.985Z,51.44
2018-05-01T06:07:15.983Z,51.34
2018-05-01T06:08:15.971Z,51.44
2018-05-01T06:09:15.963Z,51.44
2018-05-01T06:10:15.961Z,51.44
2018-05-01T06:11:15.951Z,51.44
2018-05-01T06:12:15.938Z,51.44
2018-05-01T06:13:15.933Z,51.44
2018-05-01T06:14:15.928Z,51.34
2018-05-01T06:15:15.915Z,51.44
2018-05-01T06:16:15.912Z,51.34
2018-05-01T06:17:15.902Z,51.44
2018-05-01T06:18:15.899Z,51.63
2018-05-01T06:19:15.887Z,51.63
2018-05-01T06:20:15.876Z,51.44
2018-05-01T06:21:15.878Z,51.73
2018-05-01T06:22:15.864Z,51.53
2018-05-01T06:23:15.865Z,51.53
2018-05-01T06:24:15.853Z,51.73
2018-05-01T06:25:15.842Z,51.63
2018-05-01T06:26:15.836Z,51.92
2018-05-01T06:27:15.827Z,51.92
2018-05-01T06:28:15.825Z,51.92
2018-05-01T06:29:15.813Z,51.44
2018-05-01T06:30:15.803Z,52.21
2018-05-01T06:31:15.814Z,52.21
2018-05-01T06:32:15.787Z,52.40
2018-05-01T06:33:15.783Z,52.31
2018-05-01T06:34:15.774Z,52.11
2018-05-01T06:35:15.765Z,52.11
2018-05-01T06:36:15.759Z,52.11
2018-05-01T06:37:15.754Z,52.11
2018-05-01T06:38:15.743Z,52.11
2018-05-01T06:39:15.738Z,52.01
2018-05-01T06:40:15.726Z,52.21
2018-05-01T06:41:15.720Z,52.11
2018-05-01T06:42:15.725Z,52.31
2018-05-01T06:43:15.704Z,51.92
2018-05-01T06:44:15.697Z,52.31
2018-05-01T06:45:15.690Z,52.21
2018-05-01T06:46:15.683Z,52.11
2018-05-01T06:47:15.676Z,52.40
2018-05-01T06:48:15.670Z,52.11
2018-05-01T06:49:15.660Z,52.31
2018-05-01T06:50:15.653Z,52.31
2018-05-01T06:51:15.644Z,52.50
2018-05-01T06:52:15.639Z,52.50
2018-05-01T06:53:15.627Z,52.31
2018-05-01T06:54:15.621Z,52.40
2018-05-01T06:55:15.618Z,52.50
2018-05-01T06:56:15.610Z,52.57
2018-05-01T06:57:15.601Z,52.19
2018-05-01T06:58:15.591Z,52.19
2018-05-01T06:59:15.585Z,52.37
2018-05-01T07:00:15.576Z,52.37
2018-05-01T07:01:15.570Z,52.19
2018-05-01T07:02:15.568Z,52.21
2018-05-01T07:03:15.555Z,52.37
2018-05-01T07:04:15.606Z,52.19
2018-05-01T07:05:15.536Z,52.47
2018-05-01T07:06:15.531Z,52.19
2018-05-01T07:07:15.521Z,52.19
2018-05-01T07:08:15.513Z,52.19
2018-05-01T07:09:15.504Z,52.19
2018-05-01T07:10:15.528Z,52.37
2018-05-01T07:11:15.490Z,52.28
2018-05-01T07:12:15.486Z,52.28
2018-05-01T07:13:15.476Z,52.19
2018-05-01T07:14:15.473Z,52.37
2018-05-01T07:15:15.464Z,52.37
2018-05-01T07:16:15.452Z,52.47
2018-05-01T07:17:15.456Z,52.28
2018-05-01T07:18:15.441Z,52.40
2018-05-01T07:19:15.431Z,52.37
2018-05-01T07:20:15.431Z,52.47
2018-05-01T07:21:15.456Z,52.37
2018-05-01T07:22:15.407Z,52.19
2018-05-01T07:23:15.398Z,52.40
2018-05-01T07:24:15.391Z,52.19
2018-05-01T07:25:15.382Z,52.21
2018-05-01T07:26:15.374Z,52.09
2018-05-01T07:27:15.366Z,52.28
2018-05-01T07:28:15.359Z,52.28
2018-05-01T07:29:15.344Z,52.21
2018-05-01T07:30:15.345Z,52.28
2018-05-01T07:31:15.340Z,52.09
2018-05-01T07:32:15.328Z,52.11
2018-05-01T07:33:15.328Z,52.09
2018-05-01T07:34:15.314Z,52.09
2018-05-01T07:35:15.304Z,51.99
2018-05-01T07:36:15.297Z,52.01
2018-05-01T07:37:15.289Z,51.99
2018-05-01T07:38:15.287Z,52.01
2018-05-01T07:39:15.278Z,52.11
2018-05-01T07:40:15.268Z,52.01
2018-05-01T07:41:15.258Z,52.11
2018-05-01T07:42:15.253Z,52.11
2018-05-01T07:43:15.243Z,52.11
2018-05-01T07:44:15.237Z,52.11
2018-05-01T07:45:15.233Z,52.11
2018-05-01T07:46:15.220Z,52.01
2018-05-01T07:47:15.215Z,52.31
2018-05-01T07:48:15.208Z,52.21
2018-05-01T07:49:15.197Z,52.37
2018-05-01T07:50:15.191Z,51.82
2018-05-01T07:51:15.182Z,51.73
2018-05-01T07:52:15.178Z,51.63
2018-05-01T07:53:15.170Z,51.73
2018-05-01T07:54:15.162Z,51.53
2018-05-01T07:55:15.152Z,51.92
2018-05-01T07:56:15.143Z,51.73
2018-05-01T07:57:15.136Z,52.01
2018-05-01T07:58:15.133Z,51.44
2018-05-01T07:59:15.124Z,51.73
2018-05-01T08:00:15.177Z,51.73
2018-05-01T08:01:15.106Z,51.73
2018-05-01T08:02:15.098Z,51.63
2018-05-01T08:03:15.089Z,51.63
2018-05-01T08:04:15.083Z,51.73
2018-05-01T08:05:15.073Z,51.73
2018-05-01T08:06:15.066Z,51.82
2018-05-01T08:07:15.059Z,51.82
2018-05-01T08:08:15.052Z,51.92
2018-05-01T08:09:15.045Z,52.21
2018-05-01T08:10:15.041Z,51.92
2018-05-01T08:11:15.028Z,51.92
2018-05-01T08:12:15.022Z,51.73
2018-05-01T08:13:15.015Z,51.44
2018-05-01T08:14:15.009Z,52.21
2018-05-01T08:15:14.997Z,51.82
2018-05-01T08:16:14.994Z,52.21
2018-05-01T08:17:14.989Z,51.73
2018-05-01T08:18:14.975Z,52.31
2018-05-01T08:19:14.971Z,51.73
2018-05-01T08:20:14.960Z,52.21
2018-05-01T08:21:14.948Z,51.73
2018-05-01T08:22:14.941Z,52.21
2018-05-01T08:23:14.945Z,51.73
2018-05-01T08:24:14.930Z,51.70
2018-05-01T08:25:14.996Z,51.73
2018-05-01T08:26:14.920Z,52.21
2018-05-01T08:27:14.905Z,52.01
2018-05-01T08:28:14.897Z,52.19
2018-05-01T08:29:14.890Z,51.44
2018-05-01T08:30:14.888Z,51.80
2018-05-01T08:31:14.874Z,51.89
2018-05-01T08:32:14.868Z,51.92
2018-05-01T08:33:14.854Z,52.21
2018-05-01T08:34:14.852Z,52.31
2018-05-01T08:35:14.845Z,52.28
2018-05-01T08:36:14.842Z,52.19
2018-05-01T08:37:14.828Z,52.11
2018-05-01T08:38:14.826Z,51.99
2018-05-01T08:39:14.814Z,52.09
2018-05-01T08:40:14.810Z,52.19
2018-05-01T08:41:14.799Z,52.09
2018-05-01T08:42:14.789Z,52.11
2018-05-01T08:43:14.782Z,52.21
2018-05-01T08:44:14.773Z,52.19
2018-05-01T08:45:14.848Z,52.28
2018-05-01T08:46:14.761Z,52.19
2018-05-01T08:47:14.750Z,51.99
2018-05-01T08:48:14.744Z,52.31
2018-05-01T08:49:14.738Z,52.28
2018-05-01T08:50:14.729Z,52.11
2018-05-01T08:51:14.724Z,51.73
2018-05-01T08:52:14.714Z,51.73
2018-05-01T08:53:14.705Z,51.73
2018-05-01T08:54:14.702Z,51.44
2018-05-01T08:55:14.700Z,51.44
2018-05-01T08:56:14.689Z,51.34
2018-05-01T08:57:14.674Z,51.34
2018-05-01T08:58:14.672Z,51.53
2018-05-01T08:59:14.658Z,51.82
2018-05-01T09:00:14.652Z,51.92
2018-05-01T09:01:14.646Z,51.44
2018-05-01T09:02:14.638Z,51.34
2018-05-01T09:03:14.629Z,51.73
2018-05-01T09:04:14.654Z,51.25
2018-05-01T09:05:14.616Z,51.15
2018-05-01T09:06:14.611Z,51.25
2018-05-01T09:07:14.599Z,51.44
2018-05-01T09:08:14.591Z,51.65
2018-05-01T09:09:14.588Z,51.07
2018-05-01T09:10:14.577Z,50.89
2018-05-01T09:11:14.574Z,50.98
2018-05-01T09:12:14.560Z,50.69
2018-05-01T09:13:14.560Z,50.50
2018-05-01T09:14:14.551Z,50.40
2018-05-01T09:15:14.536Z,50.89
2018-05-01T09:16:14.531Z,50.50
2018-05-01T09:17:14.523Z,50.40
2018-05-01T09:18:14.591Z,50.50
2018-05-01T09:19:14.509Z,50.40
2018-05-01T09:20:14.504Z,50.40
2018-05-01T09:21:14.500Z,50.50
2018-05-01T09:22:14.488Z,50.50
2018-05-01T09:23:14.480Z,50.40
2018-05-01T09:24:14.474Z,50.50
2018-05-01T09:25:14.464Z,50.31
2018-05-01T09:26:14.456Z,50.50
2018-05-01T09:27:14.455Z,50.59
2018-05-01T09:28:14.446Z,50.33
2018-05-01T09:29:14.434Z,50.59
2018-05-01T09:30:14.430Z,50.71
2018-05-01T09:31:14.420Z,50.43
2018-05-01T09:32:14.414Z,50.52
2018-05-01T09:33:14.404Z,50.52
2018-05-01T09:34:14.405Z,50.52
2018-05-01T09:35:14.474Z,50.43
2018-05-01T09:36:14.384Z,50.52
2018-05-01T09:37:14.378Z,50.52
2018-05-01T09:38:14.371Z,50.62
2018-05-01T09:39:14.363Z,50.52
2018-05-01T09:40:14.362Z,50.52
2018-05-01T09:41:14.351Z,50.81
2018-05-01T09:42:14.342Z,50.52
2018-05-01T09:43:14.334Z,50.33
2018-05-01T09:44:14.328Z,50.23
2018-05-01T09:45:14.321Z,50.33
2018-05-01T09:46:14.313Z,50.33
2018-05-01T09:47:14.306Z,50.23
2018-05-01T09:48:14.298Z,50.23
2018-05-01T09:49:14.294Z,50.13
2018-05-01T09:50:14.288Z,49.95
2018-05-01T09:51:14.273Z,50.04
2018-05-01T09:52:14.268Z,49.65
2018-05-01T09:53:14.327Z,49.68
2018-05-01T09:54:14.256Z,49.19
2018-05-01T09:55:14.248Z,49.10
2018-05-01T09:56:14.241Z,49.29
2018-05-01T09:57:14.235Z,49.10
2018-05-01T09:58:14.225Z,49.58
2018-05-01T09:59:14.217Z,49.68
2018-05-01T10:00:14.214Z,49.39
2018-05-01T10:01:14.241Z,49.29
2018-05-01T10:02:14.200Z,49.29
2018-05-01T10:03:14.219Z,49.68
2018-05-01T10:04:14.185Z,49.55
2018-05-01T10:05:14.178Z,49.75
2018-05-01T10:06:14.169Z,49.95
2018-05-01T10:07:14.162Z,50.04
2018-05-01T10:08:14.163Z,49.68
2018-05-01T10:09:14.149Z,49.75
2018-05-01T10:10:14.143Z,49.68
2018-05-01T10:11:14.134Z,50.07
2018-05-01T10:12:14.141Z,50.13
2018-05-01T10:13:14.121Z,50.16
2018-05-01T10:14:14.114Z,49.49
2018-05-01T10:15:14.106Z,49.19
2018-05-01T10:16:14.100Z,49.39
2018-05-01T10:17:14.094Z,49.10
2018-05-01T10:18:14.088Z,49.00
2018-05-01T10:19:14.078Z,49.10
2018-05-01T10:20:14.075Z,48.90
2018-05-01T10:21:14.065Z,49.10
2018-05-01T10:22:14.069Z,49.19
2018-05-01T10:23:14.052Z,48.90
2018-05-01T10:24:14.045Z,49.00
2018-05-01T10:25:14.040Z,49.19
2018-05-01T10:26:14.031Z,49.19
2018-05-01T10:27:14.026Z,48.93
2018-05-01T10:28:14.021Z,48.64
2018-05-01T10:29:14.017Z,48.64
2018-05-01T10:30:14.006Z,48.35
2018-05-01T10:31:13.997Z,48.44
2018-05-01T10:32:13.990Z,48.54
2018-05-01T10:33:13.983Z,48.54
2018-05-01T10:34:13.980Z,48.44
2018-05-01T10:35:13.970Z,48.35
2018-05-01T10:36:13.967Z,48.54
2018-05-01T10:37:13.957Z,48.54
2018-05-01T10:38:13.951Z,48.71
2018-05-01T10:39:13.944Z,48.61
2018-05-01T10:40:13.945Z,48.81
2018-05-01T10:41:14.005Z,49.29
2018-05-01T10:42:13.923Z,49.19
2018-05-01T10:43:13.923Z,49.19
2018-05-01T10:44:13.910Z,49.10
2018-05-01T10:45:13.900Z,49.10
2018-05-01T10:46:13.912Z,49.39
2018-05-01T10:47:13.888Z,49.58
2018-05-01T10:48:13.881Z,49.19
2018-05-01T10:49:13.874Z,49.27
2018-05-01T10:50:13.884Z,49.27
2018-05-01T10:51:13.863Z,49.55
2018-05-01T10:52:13.853Z,49.55
2018-05-01T10:53:13.852Z,49.49
2018-05-01T10:54:13.838Z,49.46
2018-05-01T10:55:13.830Z,49.29
2018-05-01T10:56:13.825Z,49.37
2018-05-01T10:57:13.822Z,49.58
2018-05-01T10:58:13.813Z,49.49
2018-05-01T10:59:13.809Z,49.49
2018-05-01T11:00:13.797Z,49.65
2018-05-01T11:01:13.792Z,49.17
2018-05-01T11:02:13.788Z,49.29
2018-05-01T11:03:13.777Z,49.39
2018-05-01T11:04:13.773Z,49.58
2018-05-01T11:05:13.766Z,49.37
2018-05-01T11:06:13.758Z,49.39
2018-05-01T11:07:13.749Z,49.58
2018-05-01T11:08:13.744Z,49.49
2018-05-01T11:09:13.737Z,49.49
2018-05-01T11:10:13.730Z,49.19
2018-05-01T11:11:13.728Z,49.58
2018-05-01T11:12:13.715Z,49.68
2018-05-01T11:13:13.711Z,49.46
2018-05-01T11:14:13.703Z,49.27
2018-05-01T11:15:13.696Z,49.46
2018-05-01T11:16:13.688Z,49.27
2018-05-01T11:17:13.682Z,49.29
2018-05-01T11:18:13.676Z,49.37
2018-05-01T11:19:13.668Z,49.19
2018-05-01T11:20:13.662Z,49.39
2018-05-01T11:21:13.663Z,49.49
2018-05-01T11:22:13.683Z,49.58
2018-05-01T11:23:13.641Z,49.49
2018-05-01T11:24:13.634Z,49.58
2018-05-01T11:25:13.626Z,49.10
2018-05-01T11:26:13.732Z,49.10
2018-05-01T11:27:13.614Z,49.00
2018-05-01T11:28:13.605Z,49.29
2018-05-01T11:29:13.597Z,49.10
2018-05-01T11:30:13.590Z,49.19
2018-05-01T11:31:13.586Z,49.10
2018-05-01T11:32:13.581Z,49.00
2018-05-01T11:33:13.571Z,49.10
2018-05-01T11:34:13.564Z,49.10
2018-05-01T11:35:13.561Z,49.19
2018-05-01T11:36:13.549Z,49.29
2018-05-01T11:37:13.542Z,49.10
2018-05-01T11:38:13.537Z,49.29
2018-05-01T11:39:13.532Z,49.00
2018-05-01T11:40:13.522Z,48.90
2018-05-01T11:41:13.515Z,49.00
2018-05-01T11:42:13.509Z,49.10
2018-05-01T11:43:13.501Z,49.10
2018-05-01T11:44:13.501Z,49.19
2018-05-01T11:45:13.487Z,49.00
2018-05-01T11:46:13.486Z,49.00
2018-05-01T11:47:13.474Z,49.19
2018-05-01T11:48:13.470Z,49.29
2018-05-01T11:49:13.459Z,49.19
2018-05-01T11:50:13.461Z,49.19
2018-05-01T11:51:13.446Z,49.29
2018-05-01T11:52:13.438Z,48.90
2018-05-01T11:53:13.434Z,49.10
2018-05-01T11:54:13.426Z,48.81
2018-05-01T11:55:13.418Z,48.81
2018-05-01T11:56:13.415Z,48.81
2018-05-01T11:57:13.410Z,48.64
2018-05-01T11:58:13.399Z,48.74
2018-05-01T11:59:13.392Z,48.74
2018-05-01T12:00:13.386Z,48.90
2018-05-01T12:01:13.396Z,48.74
2018-05-01T12:02:13.373Z,48.74
2018-05-01T12:03:13.364Z,48.54
2018-05-01T12:04:13.361Z,48.54
2018-05-01T12:05:13.352Z,48.74
2018-05-01T12:06:13.344Z,49.02
2018-05-01T12:07:13.338Z,48.71
2018-05-01T12:08:13.332Z,48.71
2018-05-01T12:09:13.327Z,48.74
2018-05-01T12:10:13.319Z,48.71
2018-05-01T12:11:13.313Z,48.64
2018-05-01T12:12:13.304Z,48.74
2018-05-01T12:13:13.299Z,48.83
2018-05-01T12:14:13.292Z,48.64
2018-05-01T12:15:13.295Z,48.64
2018-05-01T12:16:13.326Z,48.44
2018-05-01T12:17:13.269Z,48.61
2018-05-01T12:18:13.264Z,48.64
2018-05-01T12:19:13.258Z,48.81
2018-05-01T12:20:13.251Z,48.90
2018-05-01T12:21:13.247Z,48.81
2018-05-01T12:22:13.242Z,49.00
2018-05-01T12:23:13.232Z,49.00
2018-05-01T12:24:13.223Z,49.29
2018-05-01T12:25:13.218Z,49.10
2018-05-01T12:26:13.212Z,49.10
2018-05-01T12:27:13.201Z,49.19
2018-05-01T12:28:13.198Z,49.00
2018-05-01T12:29:13.191Z,49.19
2018-05-01T12:30:13.185Z,49.00
2018-05-01T12:31:13.175Z,49.00
2018-05-01T12:32:13.170Z,49.10
2018-05-01T12:33:13.165Z,49.00
2018-05-01T12:34:13.160Z,49.10
2018-05-01T12:35:13.151Z,49.10
2018-05-01T12:36:13.144Z,49.10
2018-05-01T12:37:13.137Z,49.10
2018-05-01T12:38:13.127Z,49.19
2018-05-01T12:39:13.115Z,49.19
2018-05-01T12:40:13.114Z,49.19
2018-05-01T12:41:13.109Z,49.10
2018-05-01T12:42:13.108Z,49.39
2018-05-01T12:43:13.096Z,49.10
2018-05-01T12:44:13.088Z,49.39
2018-05-01T12:45:13.106Z,49.39
2018-05-01T12:46:13.075Z,49.19
2018-05-01T12:47:13.068Z,49.00
2018-05-01T12:48:13.067Z,49.10
2018-05-01T12:49:13.055Z,49.00
2018-05-01T12:50:13.048Z,49.10
2018-05-01T12:51:13.040Z,49.10
2018-05-01T12:52:13.038Z,49.10